createdAt,value
2018-04-29T00:00:54.739Z,14.00
2018-04-29T00:03:23.242Z,14.00
2018-04-29T00:05:50.902Z,14.00
2018-04-29T00:08:18.542Z,13.90
2018-04-29T00:10:46.146Z,13.70
2018-04-29T00:13:13.830Z,13.70
2018-04-29T00:15:41.476Z,13.80
2018-04-29T00:18:09.852Z,13.90
2018-04-29T00:20:37.442Z,13.90
2018-04-29T00:23:05.068Z,14.00
2018-04-29T00:25:32.656Z,14.00
2018-04-29T00:28:01.063Z,13.90
2018-04-29T00:30:28.671Z,13.80
2018-04-29T00:32:56.350Z,13.70
2018-04-29T00:35:23.939Z,13.60
2018-04-29T00:37:51.548Z,13.50
2018-04-29T00:40:19.235Z,13.50
2018-04-29T00:42:47.116Z,13.50
2018-04-29T00:45:14.721Z,13.60
2018-04-29T00:47:42.331Z,13.50
2018-04-29T00:50:09.972Z,13.50
2018-04-29T00:52:37.573Z,13.50
2018-04-29T00:55:05.304Z,13.40
2018-04-29T00:57:33.826Z,13.20
2018-04-29T01:00:01.557Z,13.10
2018-04-29T01:02:29.114Z,13.20
2018-04-29T01:04:57.505Z,13.30
2018-04-29T01:07:25.878Z,13.20
2018-04-29T01:09:56.349Z,13.20
2018-04-29T01:12:26.244Z,13.20
2018-04-29T01:14:55.908Z,13.20
2018-04-29T01:17:25.591Z,13.30
2018-04-29T01:20:04.390Z,13.30
2018-04-29T01:22:37.603Z,13.40
2018-04-29T01:25:07.359Z,13.50
2018-04-29T01:27:37.218Z,13.60
2018-04-29T01:30:04.834Z,13.70
2018-04-29T01:32:32.421Z,13.80
2018-04-29T01:35:00.807Z,13.90
2018-04-29T01:37:28.437Z,13.80
2018-04-29T01:39:56.072Z,13.90
2018-04-29T01:42:23.652Z,13.90
2018-04-29T01:44:51.230Z,13.90
2018-04-29T01:47:19.611Z,14.10
2018-04-29T01:49:48.015Z,14.10
2018-04-29T01:52:15.646Z,14.00
2018-04-29T01:54:44.163Z,14.10
2018-04-29T01:57:11.741Z,14.10
2018-04-29T01:59:39.338Z,14.10
2018-04-29T02:02:06.979Z,14.20
2018-04-29T02:04:34.604Z,14.20
2018-04-29T02:07:02.255Z,14.10
2018-04-29T02:09:30.609Z,14.00
2018-04-29T02:11:58.195Z,14.00
2018-04-29T02:14:26.613Z,13.90
2018-04-29T02:16:54.235Z,14.00
2018-04-29T02:19:21.837Z,14.00
2018-04-29T02:21:49.464Z,14.00
2018-04-29T02:24:17.054Z,14.00
2018-04-29T02:26:44.671Z,14.00
2018-04-29T02:29:13.067Z,14.10
2018-04-29T02:31:40.702Z,14.00
2018-04-29T02:34:09.111Z,13.90
2018-04-29T02:36:36.743Z,13.90
2018-04-29T02:39:04.409Z,13.90
2018-04-29T02:41:31.987Z,13.90
2018-04-29T02:43:59.607Z,13.90
2018-04-29T02:46:27.247Z,13.80
2018-04-29T02:48:54.861Z,13.90
2018-04-29T02:51:23.246Z,13.70
2018-04-29T02:53:51.630Z,13.70
2018-04-29T02:56:19.294Z,13.70
2018-04-29T02:58:46.897Z,13.70
2018-04-29T03:01:14.528Z,13.70
2018-04-29T03:03:42.149Z,13.70
2018-04-29T03:06:09.784Z,13.60
2018-04-29T03:08:37.393Z,13.50
2018-04-29T03:11:05.793Z,13.40
2018-04-29T03:13:33.393Z,13.40
2018-04-29T03:16:01.019Z,13.50
2018-04-29T03:18:28.626Z,13.50
2018-04-29T03:20:59.722Z,13.50
2018-04-29T03:23:27.308Z,13.40
2018-04-29T03:25:54.946Z,13.30
2018-04-29T03:28:22.513Z,13.20
2018-04-29T03:30:50.113Z,13.10
2018-04-29T03:33:17.787Z,13.10
2018-04-29T03:35:45.454Z,13.10
2018-04-29T03:38:13.106Z,13.00
2018-04-29T03:40:40.735Z,13.00
2018-04-29T03:43:08.358Z,13.00
2018-04-29T03:45:36.000Z,12.90
2018-04-29T03:48:03.585Z,13.00
2018-04-29T03:50:32.032Z,13.10
2018-04-29T03:52:59.615Z,13.10
2018-04-29T03:55:28.044Z,13.10
2018-04-29T03:58:07.559Z,13.10
2018-04-29T04:00:55.875Z,13.10
2018-04-29T04:03:35.387Z,13.10
2018-04-29T04:06:03.060Z,13.10
2018-04-29T04:08:30.757Z,13.10
2018-04-29T04:10:58.415Z,13.10
2018-04-29T04:13:26.110Z,13.10
2018-04-29T04:15:53.728Z,13.10
2018-04-29T04:18:21.370Z,13.10
2018-04-29T04:20:48.994Z,13.10
2018-04-29T04:23:16.637Z,13.00
2018-04-29T04:25:44.248Z,13.00
2018-04-29T04:28:11.879Z,12.90
2018-04-29T04:30:39.482Z,12.90
2018-04-29T04:33:07.183Z,12.80
2018-04-29T04:35:34.891Z,12.80
2018-04-29T04:38:02.516Z,12.90
2018-04-29T04:40:30.138Z,12.90
2018-04-29T04:42:57.801Z,12.90
2018-04-29T04:45:25.507Z,12.90
2018-04-29T04:47:53.127Z,13.00
2018-04-29T04:50:20.792Z,13.00
2018-04-29T04:52:48.477Z,13.00
2018-04-29T04:55:16.105Z,13.10
2018-04-29T04:57:43.781Z,13.10
2018-04-29T05:00:11.441Z,13.00
2018-04-29T05:02:39.050Z,12.90
2018-04-29T05:05:06.695Z,12.90
2018-04-29T05:07:34.382Z,12.80
2018-04-29T05:10:02.023Z,12.80
2018-04-29T05:12:30.525Z,12.90
2018-04-29T05:14:58.133Z,12.90
2018-04-29T05:17:25.777Z,12.90
2018-04-29T05:19:53.405Z,12.90
2018-04-29T05:22:21.030Z,13.00
2018-04-29T05:24:49.391Z,13.00
2018-04-29T05:27:17.066Z,13.00
2018-04-29T05:29:44.706Z,13.10
2018-04-29T05:32:12.311Z,13.10
2018-04-29T05:34:40.727Z,13.10
2018-04-29T05:37:08.357Z,13.10
2018-04-29T05:39:35.979Z,13.10
2018-04-29T05:42:05.249Z,13.30
2018-04-29T05:44:32.821Z,13.30
2018-04-29T05:47:00.517Z,13.40
2018-04-29T05:49:28.170Z,13.50
2018-04-29T05:51:55.755Z,13.50
2018-04-29T05:54:23.353Z,13.60
2018-04-29T05:56:51.009Z,13.50
2018-04-29T05:59:18.642Z,13.60
2018-04-29T06:01:47.014Z,13.80
2018-04-29T06:04:14.644Z,13.80
2018-04-29T06:06:42.279Z,13.80
2018-04-29T06:09:09.917Z,13.90
2018-04-29T06:11:38.326Z,14.10
2018-04-29T06:14:05.996Z,13.20
2018-04-29T06:16:33.635Z,14.20
2018-04-29T06:19:01.300Z,14.20
2018-04-29T06:21:28.955Z,14.30
2018-04-29T06:23:57.308Z,14.40
2018-04-29T06:26:25.721Z,14.50
2018-04-29T06:28:53.461Z,14.50
2018-04-29T06:31:21.149Z,14.60
2018-04-29T06:33:48.750Z,14.80
2018-04-29T06:36:16.378Z,14.80
2018-04-29T06:38:43.989Z,14.90
2018-04-29T06:41:11.620Z,14.90
2018-04-29T06:43:39.964Z,15.10
2018-04-29T06:46:08.361Z,15.30
2018-04-29T06:48:35.932Z,15.30
2018-04-29T06:51:03.518Z,15.40
2018-04-29T06:53:31.173Z,15.50
2018-04-29T06:55:58.789Z,15.60
2018-04-29T06:58:26.395Z,15.70
2018-04-29T07:00:54.040Z,15.80
2018-04-29T07:03:21.653Z,15.90
2018-04-29T07:05:49.247Z,16.10
2018-04-29T07:08:16.941Z,16.10
2018-04-29T07:10:45.244Z,16.30
2018-04-29T07:13:12.878Z,16.30
2018-04-29T07:15:40.524Z,16.30
2018-04-29T07:18:08.134Z,16.40
2018-04-29T07:20:35.757Z,16.50
2018-04-29T07:23:03.416Z,16.70
2018-04-29T07:25:31.097Z,16.70
2018-04-29T07:27:58.743Z,16.70
2018-04-29T07:30:26.324Z,16.80
2018-04-29T07:32:53.953Z,16.80
2018-04-29T07:35:21.538Z,16.90
2018-04-29T07:37:49.160Z,17.00
2018-04-29T07:40:17.506Z,17.20
2018-04-29T07:42:45.124Z,17.20
2018-04-29T07:45:12.738Z,17.50
2018-04-29T07:47:40.375Z,17.80
2018-04-29T07:50:07.982Z,18.00
2018-04-29T07:52:36.477Z,18.40
2018-04-29T07:55:04.009Z,18.40
2018-04-29T07:57:31.607Z,18.80
2018-04-29T07:59:59.235Z,18.90
2018-04-29T08:02:27.643Z,19.20
2018-04-29T08:04:55.274Z,19.20
2018-04-29T08:07:22.873Z,19.30
2018-04-29T08:09:50.473Z,19.40
2018-04-29T08:12:18.089Z,19.60
2018-04-29T08:14:45.704Z,19.70
2018-04-29T08:17:13.375Z,19.70
2018-04-29T08:19:41.806Z,20.20
2018-04-29T08:22:09.406Z,20.20
2018-04-29T08:24:37.046Z,20.40
2018-04-29T08:27:04.681Z,20.70
2018-04-29T08:29:32.265Z,20.90
2018-04-29T08:31:59.909Z,21.00
2018-04-29T08:34:27.506Z,21.20
2018-04-29T08:36:55.095Z,21.10
2018-04-29T08:39:23.522Z,21.50
2018-04-29T08:41:51.174Z,21.50
2018-04-29T08:44:18.791Z,21.60
2018-04-29T08:46:46.415Z,21.70
2018-04-29T08:49:13.993Z,21.80
2018-04-29T08:51:41.629Z,21.90
2018-04-29T08:54:09.990Z,22.10
2018-04-29T08:56:37.556Z,22.10
2018-04-29T08:59:05.221Z,22.30
2018-04-29T09:01:32.805Z,22.50
2018-04-29T09:04:00.432Z,22.50
2018-04-29T09:06:28.058Z,22.40
2018-04-29T09:08:55.633Z,22.70
2018-04-29T09:11:23.274Z,22.80
2018-04-29T09:13:51.673Z,23.00
2018-04-29T09:16:19.366Z,22.90
2018-04-29T09:18:47.007Z,23.10
2018-04-29T09:21:14.603Z,23.10
2018-04-29T09:23:42.227Z,23.30
2018-04-29T09:26:10.609Z,23.60
2018-04-29T09:28:38.226Z,23.60
2018-04-29T09:31:05.866Z,23.80
2018-04-29T09:33:33.445Z,24.00
2018-04-29T09:36:01.062Z,24.10
2018-04-29T09:38:28.774Z,24.30
2018-04-29T09:40:56.401Z,24.40
2018-04-29T09:43:24.083Z,24.60
2018-04-29T09:45:52.420Z,24.90
2018-04-29T09:48:20.822Z,25.10
2018-04-29T09:50:48.398Z,25.10
2018-04-29T09:53:16.030Z,25.10
2018-04-29T09:55:44.389Z,24.70
2018-04-29T09:58:12.047Z,24.70
2018-04-29T10:00:39.670Z,24.70
2018-04-29T10:03:08.078Z,24.90
2018-04-29T10:05:35.757Z,25.20
2018-04-29T10:08:03.332Z,25.50
2018-04-29T10:10:31.674Z,26.10
2018-04-29T10:13:00.223Z,26.10
2018-04-29T10:15:27.746Z,26.10
2018-04-29T10:17:55.386Z,26.10
2018-04-29T10:20:22.981Z,26.20
2018-04-29T10:22:51.412Z,26.10
2018-04-29T10:25:19.749Z,26.00
2018-04-29T10:27:47.356Z,26.00
2018-04-29T10:30:14.957Z,26.00
2018-04-29T10:32:42.612Z,25.80
2018-04-29T10:35:10.229Z,25.90
2018-04-29T10:37:37.850Z,26.20
2018-04-29T10:40:06.264Z,26.00
2018-04-29T10:42:33.885Z,26.00
2018-04-29T10:45:02.285Z,26.20
2018-04-29T10:47:29.894Z,26.10
2018-04-29T10:49:57.487Z,26.20
2018-04-29T10:52:25.907Z,26.30
2018-04-29T10:54:53.494Z,26.30
2018-04-29T10:57:21.114Z,26.50
2018-04-29T10:59:48.737Z,26.60
2018-04-29T11:02:16.325Z,26.70
2018-04-29T11:04:44.764Z,27.00
2018-04-29T11:07:12.381Z,27.00
2018-04-29T11:09:40.028Z,27.00
2018-04-29T11:12:08.368Z,27.10
2018-04-29T11:14:36.002Z,27.00
2018-04-29T11:17:03.641Z,27.20
2018-04-29T11:19:31.223Z,27.40
2018-04-29T11:21:58.865Z,27.30
2018-04-29T11:24:26.480Z,27.40
2018-04-29T11:26:54.103Z,27.70
2018-04-29T11:29:21.729Z,27.70
2018-04-29T11:31:50.121Z,27.20
2018-04-29T11:34:18.504Z,27.00
2018-04-29T11:36:46.134Z,27.00
2018-04-29T11:39:13.745Z,26.80
2018-04-29T11:41:41.367Z,26.90
2018-04-29T11:44:08.957Z,27.10
2018-04-29T11:46:36.594Z,27.20
2018-04-29T11:49:04.937Z,27.10
2018-04-29T11:51:32.561Z,27.20
2018-04-29T11:54:00.147Z,27.20
2018-04-29T11:56:27.778Z,27.40
2018-04-29T11:58:55.389Z,27.60
2018-04-29T12:01:23.041Z,27.60
2018-04-29T12:03:50.647Z,27.80
2018-04-29T12:06:19.000Z,27.90
2018-04-29T12:08:46.620Z,27.90
2018-04-29T12:11:14.198Z,28.00
2018-04-29T12:13:41.820Z,28.10
2018-04-29T12:16:10.159Z,28.10
2018-04-29T12:18:37.813Z,28.10
2018-04-29T12:21:05.396Z,28.00
2018-04-29T12:23:33.797Z,28.10
2018-04-29T12:26:02.155Z,28.20
2018-04-29T12:28:29.779Z,28.10
2018-04-29T12:30:57.362Z,28.20
2018-04-29T12:33:24.985Z,28.30
2018-04-29T12:35:52.685Z,28.30
2018-04-29T12:38:20.306Z,28.30
2018-04-29T12:40:47.916Z,27.70
2018-04-29T12:43:15.537Z,27.60
2018-04-29T12:45:43.125Z,27.70
2018-04-29T12:48:10.772Z,27.90
2018-04-29T12:50:38.371Z,28.00
2018-04-29T12:53:05.953Z,28.10
2018-04-29T12:55:34.367Z,28.20
2018-04-29T12:58:02.730Z,28.20
2018-04-29T13:00:30.369Z,28.20
2018-04-29T13:02:58.763Z,28.40
2018-04-29T13:05:26.356Z,28.40
2018-04-29T13:07:53.981Z,28.40
2018-04-29T13:10:22.361Z,28.40
2018-04-29T13:12:50.742Z,28.30
2018-04-29T13:15:19.123Z,28.20
2018-04-29T13:17:46.755Z,28.20
2018-04-29T13:20:14.367Z,28.20
2018-04-29T13:22:41.982Z,28.20
2018-04-29T13:25:09.633Z,28.10
2018-04-29T13:27:37.226Z,28.00
2018-04-29T13:30:05.619Z,28.10
2018-04-29T13:32:33.201Z,27.30
2018-04-29T13:35:00.789Z,28.20
2018-04-29T13:37:28.432Z,28.20
2018-04-29T13:39:56.022Z,28.30
2018-04-29T13:42:23.726Z,28.30
2018-04-29T13:44:51.333Z,28.30
2018-04-29T13:47:18.983Z,28.20
2018-04-29T13:49:46.576Z,28.30
2018-04-29T13:52:14.181Z,28.30
2018-04-29T13:54:41.862Z,28.30
2018-04-29T13:57:09.437Z,28.40
2018-04-29T13:59:37.056Z,28.30
2018-04-29T14:02:04.676Z,28.30
2018-04-29T14:04:32.261Z,28.30
2018-04-29T14:06:59.889Z,28.30
2018-04-29T14:09:27.490Z,28.40
2018-04-29T14:11:55.894Z,28.40
2018-04-29T14:14:23.483Z,28.40
2018-04-29T14:16:51.084Z,28.40
2018-04-29T14:19:19.515Z,28.50
2018-04-29T14:21:47.109Z,28.40
2018-04-29T14:24:14.690Z,28.50
2018-04-29T14:26:43.090Z,28.40
2018-04-29T14:29:10.678Z,28.40
2018-04-29T14:31:38.315Z,28.40
2018-04-29T14:34:05.901Z,28.40
2018-04-29T14:36:33.565Z,28.30
2018-04-29T14:39:01.164Z,28.20
2018-04-29T14:41:28.793Z,28.20
2018-04-29T14:43:56.368Z,28.30
2018-04-29T14:46:23.964Z,28.40
2018-04-29T14:48:52.364Z,28.40
2018-04-29T14:51:20.004Z,28.40
2018-04-29T14:53:48.367Z,28.30
2018-04-29T14:56:16.012Z,28.30
2018-04-29T14:58:43.630Z,28.30
2018-04-29T15:01:11.269Z,28.30
2018-04-29T15:03:39.651Z,28.40
2018-04-29T15:06:07.998Z,28.50
2018-04-29T15:08:35.619Z,28.50
2018-04-29T15:11:03.244Z,28.60
2018-04-29T15:13:30.919Z,28.60
2018-04-29T15:15:59.312Z,28.70
2018-04-29T15:18:38.792Z,28.70
2018-04-29T15:21:06.412Z,28.60
2018-04-29T15:23:34.132Z,28.50
2018-04-29T15:26:01.720Z,28.40
2018-04-29T15:28:30.130Z,28.40
2018-04-29T15:30:57.716Z,28.40
2018-04-29T15:33:25.346Z,28.40
2018-04-29T15:35:52.946Z,28.40
2018-04-29T15:38:20.551Z,28.30
2018-04-29T15:40:48.984Z,28.20
2018-04-29T15:43:16.578Z,28.10
2018-04-29T15:45:44.976Z,28.00
2018-04-29T15:48:12.702Z,28.00
2018-04-29T15:50:40.259Z,28.10
2018-04-29T15:53:07.970Z,28.10
2018-04-29T15:55:35.594Z,28.20
2018-04-29T15:58:03.256Z,28.20
2018-04-29T16:00:30.863Z,28.20
2018-04-29T16:02:58.439Z,28.20
2018-04-29T16:05:26.081Z,28.30
2018-04-29T16:07:53.704Z,28.30
2018-04-29T16:10:21.339Z,28.40
2018-04-29T16:12:48.927Z,28.30
2018-04-29T16:15:16.601Z,28.30
2018-04-29T16:17:45.062Z,28.20
2018-04-29T16:20:12.655Z,28.20
2018-04-29T16:22:41.027Z,28.20
2018-04-29T16:25:09.380Z,28.30
2018-04-29T16:27:37.009Z,28.30
2018-04-29T16:30:04.607Z,28.30
2018-04-29T16:32:32.210Z,28.30
2018-04-29T16:35:00.601Z,28.10
2018-04-29T16:37:28.265Z,28.10
2018-04-29T16:39:55.895Z,28.00
2018-04-29T16:42:24.252Z,27.80
2018-04-29T16:44:51.876Z,27.80
2018-04-29T16:47:19.459Z,27.70
2018-04-29T16:49:47.091Z,27.70
2018-04-29T16:52:14.678Z,27.60
2018-04-29T16:54:42.294Z,27.50
2018-04-29T16:57:09.935Z,27.40
2018-04-29T16:59:37.531Z,27.40
2018-04-29T17:02:05.159Z,27.40
2018-04-29T17:04:33.528Z,27.40
2018-04-29T17:07:01.187Z,27.30
2018-04-29T17:09:28.788Z,27.40
2018-04-29T17:11:56.410Z,27.30
2018-04-29T17:14:24.111Z,27.20
2018-04-29T17:16:52.461Z,27.00
2018-04-29T17:19:20.093Z,27.00
2018-04-29T17:21:47.701Z,26.90
2018-04-29T17:24:16.049Z,26.90
2018-04-29T17:26:43.673Z,26.80
2018-04-29T17:29:11.304Z,26.80
2018-04-29T17:31:38.859Z,26.80
2018-04-29T17:34:07.271Z,26.80
2018-04-29T17:36:34.853Z,26.70
2018-04-29T17:39:02.463Z,26.70
2018-04-29T17:41:30.873Z,26.60
2018-04-29T17:43:58.521Z,26.60
2018-04-29T17:46:26.870Z,26.60
2018-04-29T17:48:54.753Z,26.50
2018-04-29T17:51:22.335Z,26.50
2018-04-29T17:53:49.946Z,26.30
2018-04-29T17:56:17.576Z,26.20
2018-04-29T17:58:45.253Z,26.20
2018-04-29T18:01:12.914Z,26.20
2018-04-29T18:03:40.555Z,26.10
2018-04-29T18:06:08.145Z,26.00
2018-04-29T18:08:35.783Z,25.90
2018-04-29T18:11:03.411Z,25.90
2018-04-29T18:13:31.766Z,25.70
2018-04-29T18:15:59.410Z,25.70
2018-04-29T18:18:26.987Z,25.70
2018-04-29T18:20:54.662Z,25.60
2018-04-29T18:23:22.302Z,25.60
2018-04-29T18:25:49.935Z,25.60
2018-04-29T18:28:17.560Z,25.50
2018-04-29T18:30:45.950Z,25.40
2018-04-29T18:33:14.307Z,25.30
2018-04-29T18:35:41.925Z,25.30
2018-04-29T18:38:09.530Z,25.20
2018-04-29T18:40:37.198Z,25.10
2018-04-29T18:43:04.791Z,25.10
2018-04-29T18:45:32.386Z,25.00
2018-04-29T18:48:00.047Z,24.90
2018-04-29T18:50:27.720Z,24.90
2018-04-29T18:52:55.298Z,24.80
2018-04-29T18:55:22.898Z,24.80
2018-04-29T18:57:50.523Z,24.70
2018-04-29T19:00:18.154Z,24.60
2018-04-29T19:02:45.757Z,24.50
2018-04-29T19:05:14.150Z,24.40
2018-04-29T19:07:41.793Z,24.30
2018-04-29T19:10:12.112Z,24.30
2018-04-29T19:12:39.752Z,24.30
2018-04-29T19:15:07.356Z,24.30
2018-04-29T19:17:35.718Z,24.20
2018-04-29T19:20:04.134Z,24.10
2018-04-29T19:22:31.784Z,24.10
2018-04-29T19:24:59.384Z,24.10
2018-04-29T19:27:27.095Z,24.10
2018-04-29T19:29:55.489Z,24.00
2018-04-29T19:32:23.125Z,24.10
2018-04-29T19:34:50.761Z,24.00
2018-04-29T19:37:18.352Z,24.00
2018-04-29T19:39:45.977Z,24.00
2018-04-29T19:42:13.571Z,23.90
2018-04-29T19:44:41.197Z,23.90
2018-04-29T19:47:08.794Z,23.90
2018-04-29T19:49:36.474Z,23.90
2018-04-29T19:52:04.851Z,23.80
2018-04-29T19:54:32.576Z,23.80
2018-04-29T19:57:00.170Z,23.80
2018-04-29T19:59:29.682Z,23.70
2018-04-29T20:02:00.976Z,23.60
2018-04-29T20:04:28.576Z,23.50
2018-04-29T20:06:56.233Z,23.50
2018-04-29T20:09:23.874Z,23.40
2018-04-29T20:11:51.476Z,23.30
2018-04-29T20:14:19.870Z,23.20
2018-04-29T20:16:47.524Z,23.10
2018-04-29T20:19:15.960Z,23.20
2018-04-29T20:21:43.575Z,23.10
2018-04-29T20:24:11.182Z,23.10
2018-04-29T20:26:38.822Z,23.10
2018-04-29T20:29:06.424Z,23.10
2018-04-29T20:31:34.839Z,23.00
2018-04-29T20:34:03.231Z,22.90
2018-04-29T20:36:30.884Z,22.80
2018-04-29T20:38:58.479Z,22.90
2018-04-29T20:41:26.178Z,22.90
2018-04-29T20:43:54.582Z,22.90
2018-04-29T20:46:22.189Z,22.80
2018-04-29T20:48:49.824Z,22.80
2018-04-29T20:51:17.433Z,22.90
2018-04-29T20:53:45.088Z,22.80
2018-04-29T20:56:12.781Z,22.80
2018-04-29T20:58:40.398Z,22.80
2018-04-29T21:01:08.018Z,22.90
2018-04-29T21:03:35.613Z,22.90
2018-04-29T21:06:03.236Z,22.90
2018-04-29T21:08:31.615Z,23.00
2018-04-29T21:10:59.999Z,22.90
2018-04-29T21:13:27.599Z,22.90
2018-04-29T21:15:55.234Z,23.00
2018-04-29T21:18:22.830Z,22.90
2018-04-29T21:20:50.479Z,22.90
2018-04-29T21:23:18.075Z,23.00
2018-04-29T21:25:45.718Z,22.90
2018-04-29T21:28:13.303Z,23.00
2018-04-29T21:30:40.941Z,23.00
2018-04-29T21:33:08.564Z,23.00
2018-04-29T21:35:36.221Z,23.00
2018-04-29T21:38:03.858Z,23.00
2018-04-29T21:40:31.458Z,23.00
2018-04-29T21:42:59.089Z,23.00
2018-04-29T21:45:27.506Z,23.00
2018-04-29T21:47:55.114Z,23.00
2018-04-29T21:50:22.745Z,23.00
2018-04-29T21:52:50.417Z,22.90
2018-04-29T21:55:18.052Z,23.00
2018-04-29T21:57:45.643Z,23.00
2018-04-29T22:00:13.276Z,23.00
2018-04-29T22:02:40.926Z,23.00
2018-04-29T22:05:08.536Z,23.10
2018-04-29T22:07:36.169Z,23.10
2018-04-29T22:10:03.793Z,23.10
2018-04-29T22:12:32.209Z,23.00
2018-04-29T22:14:59.806Z,23.00
2018-04-29T22:17:27.427Z,22.90
2018-04-29T22:19:55.058Z,22.90
2018-04-29T22:22:23.417Z,22.70
2018-04-29T22:24:51.046Z,22.70
2018-04-29T22:27:18.659Z,22.70
2018-04-29T22:29:47.061Z,22.50
2018-04-29T22:32:14.655Z,22.50
2018-04-29T22:34:42.290Z,22.40
2018-04-29T22:37:09.920Z,22.40
2018-04-29T22:39:37.536Z,22.30
2018-04-29T22:42:05.125Z,22.20
2018-04-29T22:44:32.762Z,22.20
2018-04-29T22:47:00.395Z,22.10
2018-04-29T22:49:27.984Z,22.00
2018-04-29T22:51:55.620Z,21.90
2018-04-29T22:54:23.622Z,21.80
2018-04-29T22:56:51.252Z,21.80
2018-04-29T22:59:18.847Z,21.70
2018-04-29T23:01:46.498Z,21.60
2018-04-29T23:04:14.148Z,21.50
2018-04-29T23:06:41.803Z,21.50
2018-04-29T23:09:09.446Z,21.50
2018-04-29T23:11:37.815Z,21.50
2018-04-29T23:14:06.230Z,21.50
2018-04-29T23:16:33.825Z,21.50
2018-04-29T23:19:01.424Z,21.50
2018-04-29T23:21:29.075Z,21.10
2018-04-29T23:23:57.499Z,20.40
2018-04-29T23:26:25.081Z,20.30
2018-04-29T23:28:52.742Z,20.10
2018-04-29T23:31:21.154Z,19.40
2018-04-29T23:33:49.590Z,19.10
2018-04-29T23:36:17.194Z,19.00
2018-04-29T23:38:45.581Z,18.60
2018-04-29T23:41:13.290Z,18.60
2018-04-29T23:43:40.904Z,18.60
2018-04-29T23:46:09.324Z,18.20
2018-04-29T23:48:36.987Z,18.20
2018-04-29T23:51:04.609Z,18.20
2018-04-29T23:53:32.239Z,18.10
2018-04-29T23:55:59.851Z,18.00
2018-04-29T23:58:28.233Z,17.60
